Time;durP1;ratioP1;P1;durP2;ratioP2;P2;SDS_P1;SDS_P2;PMS_P1;PMS_P2;Temp;Humidity;BMP_temperature;BMP_pressure;BME280_temperature;BME280_humidity;BME280_pressure;Samples;Min_cycle;Max_cycle;Signal;HPM_P1;HPM_P2
2023/03/07 00:00:15;;;;;;;11.00;6.68;;;;;;;19.94;42.21;99997.22;5053773;28;20052;-48
2023/03/07 00:02:43;;;;;;;9.95;6.70;;;;;;;19.93;42.25;99991.00;5053500;28;20052;-48
2023/03/07 00:05:11;;;;;;;7.80;6.07;;;;;;;19.93;42.26;99984.78;5053252;28;20053;-50
2023/03/07 00:07:38;;;;;;;8.52;5.32;;;;;;;19.91;41.99;99987.63;5053197;28;20056;-47
2023/03/07 00:10:06;;;;;;;9.95;7.70;;;;;;;19.92;42.08;99993.84;5053512;28;20403;-47
2023/03/07 00:12:34;;;;;;;12.55;6.80;;;;;;;19.92;42.08;99993.84;5053119;28;20052;-47
2023/03/07 00:15:01;;;;;;;10.02;6.30;;;;;;;19.91;42.02;100001.06;5053378;28;20395;-46
2023/03/07 00:17:28;;;;;;;14.60;6.60;;;;;;;19.91;41.81;100002.91;5053047;28;20051;-46
2023/03/07 00:19:56;;;;;;;9.43;6.20;;;;;;;19.90;42.10;99999.38;5052968;28;20044;-46
2023/03/07 00:22:23;;;;;;;9.90;6.07;;;;;;;19.90;41.78;99993.16;5053472;28;20476;-46
2023/03/07 00:24:50;;;;;;;10.57;6.55;;;;;;;19.90;41.87;99991.31;5036617;28;20053;-48
2023/03/07 00:27:17;;;;;;;11.10;6.57;;;;;;;19.90;41.80;99990.47;5032951;28;20049;-48
2023/03/07 00:29:47;;;;;;;9.80;6.05;;;;;;;19.90;41.89;99991.31;5033439;28;20037;-46
2023/03/07 00:32:15;;;;;;;9.63;6.07;;;;;;;19.88;41.90;99984.41;5032808;28;20045;-49
2023/03/07 00:34:42;;;;;;;9.98;7.00;;;;;;;19.89;41.72;99988.78;5032180;28;20399;-48
2023/03/07 00:37:09;;;;;;;8.45;5.97;;;;;;;19.89;41.81;99994.13;5032930;28;20045;-48
2023/03/07 00:39:36;;;;;;;9.05;5.43;;;;;;;19.89;41.88;99996.81;5033083;28;20046;-46
2023/03/07 00:42:04;;;;;;;9.38;6.57;;;;;;;19.88;41.55;99998.66;5032835;28;20053;-47
2023/03/07 00:44:31;;;;;;;9.77;5.82;;;;;;;19.88;41.63;99992.47;5032757;28;20054;-46
2023/03/07 00:46:59;;;;;;;8.68;5.47;;;;;;;19.88;41.81;99989.78;5031623;28;20052;-46
2023/03/07 00:49:26;;;;;;;11.32;5.90;;;;;;;19.87;41.58;99986.25;5031831;28;20053;-47
2023/03/07 00:51:54;;;;;;;8.00;5.95;;;;;;;19.88;41.62;99987.94;5032797;28;20050;-46
2023/03/07 00:54:21;;;;;;;10.43;6.38;;;;;;;19.88;41.56;99987.09;5043237;28;20049;-46
2023/03/07 00:56:48;;;;;;;9.60;6.05;;;;;;;19.88;41.63;99987.94;5052714;28;20049;-47
2023/03/07 00:59:16;;;;;;;10.18;5.80;;;;;;;19.88;41.41;99989.78;5051102;28;20491;-47
2023/03/07 01:01:44;;;;;;;8.85;6.07;;;;;;;19.87;41.48;99986.25;5052465;28;20044;-47
2023/03/07 01:04:11;;;;;;;8.32;5.78;;;;;;;19.87;41.51;99983.56;5053570;28;20048;-50
2023/03/07 01:06:38;;;;;;;10.60;5.55;;;;;;;19.87;41.61;99978.19;5055103;28;20487;-46
2023/03/07 01:09:07;;;;;;;8.02;5.60;;;;;;;19.86;41.46;99978.38;5054800;28;20049;-47
2023/03/07 01:11:36;;;;;;;8.90;5.47;;;;;;;19.86;41.41;99970.31;5054804;28;20049;-48
2023/03/07 01:14:05;;;;;;;7.78;5.40;;;;;;;19.86;41.36;99964.94;5054828;28;20057;-47
2023/03/07 01:16:36;;;;;;;9.10;5.68;;;;;;;19.86;41.36;99973.00;5054687;28;20072;-47
2023/03/07 01:19:08;;;;;;;10.18;6.18;;;;;;;19.86;41.50;99967.63;5056248;28;20044;-48
2023/03/07 01:21:38;;;;;;;9.55;5.13;;;;;;;19.85;41.55;99965.91;5055371;28;20045;-48
2023/03/07 01:24:09;;;;;;;10.02;5.97;;;;;;;19.85;41.54;99972.16;5055041;28;20384;-46
2023/03/07 01:26:37;;;;;;;7.47;5.70;;;;;;;19.85;41.42;99971.28;5034739;28;20046;-47
2023/03/07 01:29:05;;;;;;;6.75;4.82;;;;;;;19.84;41.44;99967.75;5034924;28;20049;-48
2023/03/07 01:31:34;;;;;;;8.07;5.03;;;;;;;19.84;41.33;99966.91;5035212;28;20053;-46
2023/03/07 01:34:03;;;;;;;8.57;5.93;;;;;;;19.84;41.35;99959.69;5036050;28;20041;-47
2023/03/07 01:36:35;;;;;;;10.05;5.38;;;;;;;19.85;41.45;99963.22;5034492;28;20053;-47
2023/03/07 01:39:13;;;;;;;8.77;5.47;;;;;;;19.84;41.45;99957.00;5039511;28;20371;-48
2023/03/07 01:41:48;;;;;;;7.63;4.78;;;;;;;19.82;41.32;99956.34;5053992;28;20049;-49
2023/03/07 01:44:24;;;;;;;5.65;4.38;;;;;;;19.83;41.25;99954.50;5054222;28;20060;-46
2023/03/07 01:46:59;;;;;;;8.05;4.82;;;;;;;19.84;41.29;99953.47;5054144;28;20491;-52
2023/03/07 01:49:47;;;;;;;6.28;4.45;;;;;;;19.83;41.36;99947.28;5054177;28;20358;-47
2023/03/07 01:52:29;;;;;;;10.40;5.20;;;;;;;19.81;41.33;99949.28;5055249;28;20048;-50
2023/03/07 01:55:10;;;;;;;7.18;4.95;;;;;;;19.83;41.21;99943.75;5054649;28;20053;-46
2023/03/07 01:57:42;;;;;;;8.30;5.07;;;;;;;19.82;41.24;99950.97;5054367;28;20049;-47
2023/03/07 02:00:17;;;;;;;5.82;4.30;;;;;;;19.83;41.28;99946.44;5054210;28;20053;-46
2023/03/07 02:02:50;;;;;;;8.45;5.00;;;;;;;19.83;41.07;99946.44;5055599;28;20052;-46
2023/03/07 02:05:30;;;;;;;9.55;5.45;;;;;;;19.81;41.04;99938.53;5054584;28;20053;-47
2023/03/07 02:08:00;;;;;;;9.07;4.95;;;;;;;19.82;41.05;99948.28;5054233;28;20056;-47
2023/03/07 02:10:32;;;;;;;9.07;5.63;;;;;;;19.81;41.11;99945.72;5055111;28;20530;-46
2023/03/07 02:12:59;;;;;;;7.60;5.25;;;;;;;19.82;40.99;99950.13;5055372;28;20049;-46
2023/03/07 02:15:27;;;;;;;9.18;4.93;;;;;;;19.81;41.04;99953.78;5052691;28;20395;-48
2023/03/07 02:17:57;;;;;;;7.22;5.10;;;;;;;19.82;41.09;99950.13;5054952;28;20045;-47
2023/03/07 02:20:40;;;;;;;8.25;4.93;;;;;;;19.81;40.93;99948.41;5053493;28;20052;-47
2023/03/07 02:23:34;;;;;;;7.70;4.97;;;;;;;19.81;41.03;99949.28;5053502;28;20057;-48
2023/03/07 02:26:09;;;;;;;8.48;5.35;;;;;;;19.80;40.89;99944.88;5044872;28;20045;-47
2023/03/07 02:28:38;;;;;;;9.48;4.50;;;;;;;19.81;40.97;99940.34;5034104;28;20057;-48
2023/03/07 02:31:07;;;;;;;8.05;3.88;;;;;;;19.80;40.89;99936.84;5034416;28;20053;-46
2023/03/07 02:33:37;;;;;;;7.70;4.53;;;;;;;19.81;41.06;99937.69;5035414;28;20054;-48
2023/03/07 02:36:13;;;;;;;6.85;4.63;;;;;;;19.80;41.41;99931.47;5034004;28;20396;-49
2023/03/07 02:39:05;;;;;;;6.82;4.38;;;;;;;19.81;41.41;99924.25;5034775;28;20049;-49
2023/03/07 02:41:37;;;;;;;14.38;4.95;;;;;;;19.82;41.08;99920.59;5033583;28;20060;-47
2023/03/07 02:44:12;;;;;;;10.55;4.97;;;;;;;19.81;41.07;99916.19;5033234;28;20822;-47
2023/03/07 02:46:40;;;;;;;6.68;3.88;;;;;;;19.81;41.12;99917.06;5033788;28;20053;-47
2023/03/07 02:49:08;;;;;;;7.15;4.53;;;;;;;19.81;41.14;99910.81;5034460;28;20399;-47
2023/03/07 02:51:36;;;;;;;6.82;4.30;;;;;;;19.82;41.08;99912.53;5033431;28;20435;-49
2023/03/07 02:54:03;;;;;;;9.48;4.28;;;;;;;19.81;41.15;99913.50;5039024;28;20060;-49
2023/03/07 02:56:31;;;;;;;9.52;4.40;;;;;;;19.81;41.25;99926.94;5053092;28;20403;-51
2023/03/07 02:58:58;;;;;;;7.75;4.32;;;;;;;19.81;41.15;99918.88;5054411;28;20052;-46
2023/03/07 03:01:25;;;;;;;6.70;3.80;;;;;;;19.80;41.10;99918.03;5054165;28;20056;-47
2023/03/07 03:03:54;;;;;;;8.75;4.60;;;;;;;19.80;41.14;99911.81;5052909;28;20060;-46
2023/03/07 03:06:22;;;;;;;7.78;4.40;;;;;;;19.80;41.09;99911.81;5054326;28;20060;-47
2023/03/07 03:08:50;;;;;;;6.75;4.03;;;;;;;19.79;40.86;99913.66;5052537;28;20511;-48
2023/03/07 03:11:18;;;;;;;7.55;4.07;;;;;;;19.80;41.00;99919.88;5053794;28;20048;-46
2023/03/07 03:13:45;;;;;;;5.95;3.92;;;;;;;19.79;41.09;99911.00;5054317;28;20037;-47
2023/03/07 03:16:13;;;;;;;7.28;3.80;;;;;;;19.79;40.95;99913.66;5052768;28;20056;-46
2023/03/07 03:18:40;;;;;;;10.27;4.00;;;;;;;19.78;41.06;99901.25;5052759;28;20053;-48
2023/03/07 03:21:11;;;;;;;6.45;3.88;;;;;;;19.79;40.77;99908.31;5054089;28;20041;-47
2023/03/07 03:23:39;;;;;;;5.40;3.90;;;;;;;19.80;40.89;99898.41;5052510;28;20075;-49
2023/03/07 03:26:10;;;;;;;5.70;4.05;;;;;;;19.79;40.89;99899.41;5051422;28;20045;-47
2023/03/07 03:28:38;;;;;;;9.07;4.15;;;;;;;19.79;40.94;99902.09;5031168;28;20072;-46
2023/03/07 03:31:09;;;;;;;5.60;3.47;;;;;;;19.78;40.83;99898.56;5032545;28;20046;-47
2023/03/07 03:33:38;;;;;;;6.95;3.50;;;;;;;19.78;40.83;99895.88;5032267;28;20496;-46
2023/03/07 03:36:13;;;;;;;5.35;3.28;;;;;;;19.78;40.80;99900.41;5016674;28;20053;-49
2023/03/07 03:38:41;;;;;;;7.28;3.92;;;;;;;19.78;40.79;99903.94;5032425;28;20435;-47
2023/03/07 03:41:16;;;;;;;5.90;3.38;;;;;;;19.78;40.79;99903.09;5047859;28;20055;-46
2023/03/07 03:43:45;;;;;;;5.90;3.47;;;;;;;19.78;40.83;99905.78;5053506;28;20053;-51
2023/03/07 03:46:15;;;;;;;7.15;4.07;;;;;;;19.77;40.69;99894.19;5052782;28;20052;-48
2023/03/07 03:48:43;;;;;;;9.02;3.72;;;;;;;19.78;40.78;99889.66;5051782;28;20075;-47
2023/03/07 03:51:15;;;;;;;7.00;4.70;;;;;;;19.78;40.96;99893.19;5051876;28;20049;-48
2023/03/07 03:53:42;;;;;;;5.95;3.80;;;;;;;19.78;40.99;99887.00;5051593;28;20057;-46
2023/03/07 03:56:13;;;;;;;6.95;3.88;;;;;;;19.77;40.95;99896.88;5051981;28;20049;-46
2023/03/07 03:58:41;;;;;;;6.10;3.53;;;;;;;19.78;40.95;99903.09;5053239;28;20053;-46
2023/03/07 04:01:11;;;;;;;5.63;3.72;;;;;;;19.76;41.11;99887.13;5052112;28;20049;-50
2023/03/07 04:03:41;;;;;;;6.80;3.45;;;;;;;19.76;41.03;99885.28;5052113;28;20052;-46
2023/03/07 04:06:12;;;;;;;4.85;3.53;;;;;;;19.75;40.89;99883.59;5051595;28;20065;-46
2023/03/07 04:08:39;;;;;;;5.32;3.13;;;;;;;19.77;41.16;99899.56;5053372;28;20044;-46
2023/03/07 04:11:07;;;;;;;5.20;3.20;;;;;;;19.77;40.96;99899.56;5052907;28;20045;-46
2023/03/07 04:13:35;;;;;;;7.35;3.70;;;;;;;19.75;40.99;99897.03;5052854;28;20053;-49
2023/03/07 04:16:04;;;;;;;4.75;2.75;;;;;;;19.75;40.93;99897.03;5051850;28;20057;-50
2023/03/07 04:18:33;;;;;;;5.43;3.17;;;;;;;19.75;40.78;99897.03;5051532;28;20044;-47
2023/03/07 04:21:01;;;;;;;4.72;2.90;;;;;;;19.75;41.03;99899.72;5051793;28;20415;-46
2023/03/07 04:23:29;;;;;;;5.75;2.97;;;;;;;19.75;41.12;99890.81;5053896;28;20057;-46
2023/03/07 04:25:58;;;;;;;4.60;2.95;;;;;;;19.74;40.73;99895.34;5052646;28;20045;-47
2023/03/07 04:28:43;;;;;;;6.57;3.20;;;;;;;19.74;40.70;99891.81;5048008;28;20391;-50
2023/03/07 04:31:21;;;;;;;5.47;3.22;;;;;;;19.74;41.10;99900.72;5051891;28;20037;-46
2023/03/07 04:33:50;;;;;;;6.53;2.92;;;;;;;19.73;40.87;99899.03;5051750;28;20049;-46
2023/03/07 04:36:18;;;;;;;3.92;2.80;;;;;;;19.74;40.92;99894.50;5052674;28;20052;-48
2023/03/07 04:38:47;;;;;;;4.88;2.80;;;;;;;19.74;40.85;99886.44;5053354;28;20062;-47
2023/03/07 04:41:17;;;;;;;6.50;2.85;;;;;;;19.74;40.77;99892.66;5056928;28;20052;-46
2023/03/07 04:43:46;;;;;;;5.32;3.80;;;;;;;19.73;40.63;99887.47;5055202;28;20060;-46
2023/03/07 04:46:16;;;;;;;6.28;3.03;;;;;;;19.73;40.71;99885.63;5056408;28;20407;-46
2023/03/07 04:48:45;;;;;;;5.38;2.90;;;;;;;19.73;41.12;99893.66;5057101;28;20052;-47
2023/03/07 04:51:13;;;;;;;9.55;3.08;;;;;;;19.73;41.04;99899.03;5056415;28;20041;-46
2023/03/07 04:53:40;;;;;;;5.78;2.90;;;;;;;19.74;41.24;99895.34;5054986;28;20060;-47
2023/03/07 04:56:08;;;;;;;5.63;2.95;;;;;;;19.75;41.29;99901.56;5055613;28;20044;-47
2023/03/07 04:58:37;;;;;;;4.55;2.95;;;;;;;19.73;41.21;99893.66;5054844;28;20053;-46
2023/03/07 05:01:04;;;;;;;4.35;2.50;;;;;;;19.73;41.42;99893.66;5054940;28;20045;-47
2023/03/07 05:03:34;;;;;;;6.15;3.28;;;;;;;19.75;41.56;99898.88;5056381;28;20041;-47
2023/03/07 05:06:06;;;;;;;4.88;2.50;;;;;;;19.75;41.38;99906.94;5055303;28;20471;-46
2023/03/07 05:08:34;;;;;;;5.13;2.85;;;;;;;19.75;41.59;99905.09;5054917;28;20049;-47
2023/03/07 05:11:02;;;;;;;4.32;2.70;;;;;;;19.77;41.51;99899.56;5055223;28;20072;-48
2023/03/07 05:13:33;;;;;;;9.13;3.33;;;;;;;19.76;41.49;99900.56;5055379;28;20053;-46
2023/03/07 05:16:00;;;;;;;4.80;2.78;;;;;;;19.75;41.29;99905.09;5056462;28;20076;-47
2023/03/07 05:18:28;;;;;;;4.22;2.75;;;;;;;19.76;41.27;99903.22;5054825;28;20071;-46
2023/03/07 05:20:57;;;;;;;6.47;2.78;;;;;;;19.75;41.18;99910.44;5054546;28;20052;-47
2023/03/07 05:23:26;;;;;;;4.97;2.97;;;;;;;19.75;41.12;99907.78;5055022;28;20061;-46
2023/03/07 05:25:54;;;;;;;4.20;2.35;;;;;;;19.74;41.05;99910.63;5054589;28;20064;-47
2023/03/07 05:28:23;;;;;;;5.95;3.15;;;;;;;19.75;40.87;99901.56;5051529;28;20053;-48
2023/03/07 05:30:51;;;;;;;9.25;3.35;;;;;;;19.74;41.00;99897.19;5033774;28;20053;-48
2023/03/07 05:33:19;;;;;;;4.13;2.63;;;;;;;19.72;40.76;99889.28;5036069;28;20045;-48
2023/03/07 05:35:47;;;;;;;5.07;2.72;;;;;;;19.72;40.69;99900.00;5034801;28;20424;-47
2023/03/07 05:38:15;;;;;;;6.30;3.20;;;;;;;19.72;40.78;99897.34;5034688;28;20060;-48
2023/03/07 05:40:43;;;;;;;6.30;3.15;;;;;;;19.72;41.14;99899.19;5039981;28;20060;-48
2023/03/07 05:43:11;;;;;;;4.78;2.75;;;;;;;19.72;41.05;99908.06;5054393;28;20059;-47
2023/03/07 05:45:38;;;;;;;4.55;2.83;;;;;;;19.73;40.91;99907.09;5055967;28;20052;-48
2023/03/07 05:48:06;;;;;;;9.65;3.30;;;;;;;19.72;40.67;99907.22;5055956;28;20045;-47
2023/03/07 05:50:33;;;;;;;4.65;2.40;;;;;;;19.70;40.81;99910.09;5055140;28;20041;-47
2023/03/07 05:53:00;;;;;;;6.10;2.97;;;;;;;19.70;40.49;99925.38;5055252;28;20399;-49
2023/03/07 05:55:30;;;;;;;8.57;3.25;;;;;;;19.72;40.53;99923.34;5054304;28;20498;-48
2023/03/07 05:57:59;;;;;;;5.65;2.88;;;;;;;19.69;40.57;99921.00;5054203;28;20060;-49
2023/03/07 06:00:26;;;;;;;4.63;3.13;;;;;;;19.69;40.30;99923.69;5055675;28;20045;-49
2023/03/07 06:03:01;;;;;;;7.50;2.90;;;;;;;19.68;40.53;99938.94;5055394;28;20513;-48
2023/03/07 06:05:30;;;;;;;3.95;2.45;;;;;;;19.68;40.42;99940.78;5053570;28;20053;-48
2023/03/07 06:07:57;;;;;;;5.75;2.78;;;;;;;19.67;40.81;99934.56;5054871;28;20471;-49
2023/03/07 06:10:25;;;;;;;5.97;2.70;;;;;;;19.67;40.48;99939.94;5053969;28;20056;-49
2023/03/07 06:12:53;;;;;;;6.60;2.92;;;;;;;19.67;40.66;99934.56;5054215;28;20053;-48
2023/03/07 06:15:21;;;;;;;7.50;2.70;;;;;;;19.67;40.44;99934.56;5053898;28;20510;-48
2023/03/07 06:17:55;;;;;;;5.43;3.10;;;;;;;19.67;40.36;99937.25;5054244;28;20410;-46
2023/03/07 06:20:24;;;;;;;6.55;3.45;;;;;;;19.67;40.34;99939.09;5053193;28;20053;-50
2023/03/07 06:22:53;;;;;;;6.20;3.00;;;;;;;19.67;40.34;99945.31;5053785;28;20052;-46
2023/03/07 06:25:21;;;;;;;4.78;2.95;;;;;;;19.66;40.32;99946.31;5053448;28;20057;-47
2023/03/07 06:27:49;;;;;;;4.28;2.67;;;;;;;19.67;40.21;99948.00;5054430;28;20045;-47
2023/03/07 06:30:16;;;;;;;6.28;3.03;;;;;;;19.67;40.20;99955.19;5041984;28;20053;-46
2023/03/07 06:32:44;;;;;;;4.97;2.75;;;;;;;19.68;40.34;99946.13;5033345;28;20041;-50
2023/03/07 06:35:12;;;;;;;5.82;3.00;;;;;;;19.68;40.32;99954.19;5033409;28;20049;-46
2023/03/07 06:37:39;;;;;;;4.97;3.10;;;;;;;19.67;40.20;99950.66;5033567;28;20053;-47
2023/03/07 06:40:09;;;;;;;8.63;3.05;;;;;;;19.68;40.13;99952.34;5033321;28;20049;-47
2023/03/07 06:42:38;;;;;;;4.03;2.90;;;;;;;19.68;40.15;99956.88;5033727;28;20407;-46
2023/03/07 06:45:07;;;;;;;4.20;2.88;;;;;;;19.68;40.15;99959.56;5033645;28;20057;-47
2023/03/07 06:47:34;;;;;;;6.43;2.95;;;;;;;19.68;40.24;99957.72;5033964;28;20045;-48
2023/03/07 06:50:04;;;;;;;4.82;2.75;;;;;;;19.68;40.08;99960.41;5032969;28;20399;-47
2023/03/07 06:52:32;;;;;;;5.43;2.88;;;;;;;19.68;39.90;99963.09;5033624;28;20049;-48
2023/03/07 06:55:00;;;;;;;5.00;3.20;;;;;;;19.68;40.16;99964.94;5038082;28;20053;-48
2023/03/07 06:57:29;;;;;;;5.05;3.15;;;;;;;19.68;40.12;99973.00;5053254;28;20497;-47
2023/03/07 06:59:56;;;;;;;6.18;2.92;;;;;;;19.68;39.94;99979.19;5054191;28;20049;-49
2023/03/07 07:02:24;;;;;;;5.47;3.05;;;;;;;19.67;40.00;99977.53;5052591;28;20491;-48
2023/03/07 07:04:53;;;;;;;5.65;3.30;;;;;;;19.68;40.17;99978.38;5053136;28;20056;-47
2023/03/07 07:07:21;;;;;;;5.43;2.90;;;;;;;19.68;40.10;99976.50;5052668;28;20045;-47
2023/03/07 07:09:48;;;;;;;4.93;2.72;;;;;;;19.67;39.96;99972.16;5052993;28;20049;-46
2023/03/07 07:12:17;;;;;;;5.00;2.90;;;;;;;19.67;40.00;99964.09;5053106;28;20044;-47
2023/03/07 07:14:45;;;;;;;5.55;3.13;;;;;;;19.68;40.02;99963.09;5052909;28;20057;-48
2023/03/07 07:17:14;;;;;;;5.80;3.10;;;;;;;19.68;40.01;99964.94;5053250;28;20060;-46
2023/03/07 07:19:41;;;;;;;6.38;3.10;;;;;;;19.67;39.98;99974.84;5052657;28;20060;-46
2023/03/07 07:22:10;;;;;;;5.40;2.85;;;;;;;19.68;40.08;99965.78;5052290;28;20060;-46
2023/03/07 07:24:38;;;;;;;4.88;3.15;;;;;;;19.68;40.10;99973.00;5052242;28;20045;-48
2023/03/07 07:27:06;;;;;;;5.53;2.83;;;;;;;19.67;40.13;99966.78;5051966;28;20052;-46
2023/03/07 07:29:33;;;;;;;6.18;3.45;;;;;;;19.67;40.06;99972.16;5052612;28;20056;-46
2023/03/07 07:32:01;;;;;;;4.75;3.08;;;;;;;19.67;40.18;99969.47;5034552;28;20045;-49
2023/03/07 07:34:29;;;;;;;6.47;3.17;;;;;;;19.68;40.24;99978.38;5033912;28;20052;-49
2023/03/07 07:36:57;;;;;;;6.13;3.30;;;;;;;19.68;40.13;99981.88;5032292;28;20407;-46
2023/03/07 07:39:25;;;;;;;5.53;3.53;;;;;;;19.69;40.43;99980.06;5032539;28;20060;-46
2023/03/07 07:41:52;;;;;;;4.47;2.88;;;;;;;19.69;40.29;99977.38;5038166;28;20049;-48
2023/03/07 07:44:23;;;;;;;7.05;3.67;;;;;;;19.69;40.10;99975.53;5052494;28;20044;-46
2023/03/07 07:46:57;;;;;;;5.07;2.80;;;;;;;19.69;40.29;99978.22;5051993;28;20055;-47
2023/03/07 07:49:25;;;;;;;7.28;3.10;;;;;;;19.69;40.32;99988.97;5052283;28;20049;-48
2023/03/07 07:51:53;;;;;;;4.95;2.88;;;;;;;19.70;40.45;99982.59;5052360;28;20470;-45
2023/03/07 07:54:20;;;;;;;5.15;3.03;;;;;;;19.70;40.73;99979.91;5052105;28;20045;-46
2023/03/07 07:56:48;;;;;;;6.38;3.08;;;;;;;19.70;40.60;99979.06;5052120;28;20067;-47
2023/03/07 07:59:17;;;;;;;5.80;3.55;;;;;;;19.72;40.60;99988.63;5052503;28;20522;-47
2023/03/07 08:01:44;;;;;;;5.80;3.05;;;;;;;19.71;40.82;99978.91;5051648;28;20495;-47
2023/03/07 08:04:11;;;;;;;10.20;4.40;;;;;;;19.72;40.16;99996.69;5053184;28;20056;-48
2023/03/07 08:06:38;;;;;;;5.68;4.00;;;;;;;19.73;39.82;99994.88;5052378;28;20407;-47
2023/03/07 08:09:06;;;;;;;5.95;3.50;;;;;;;19.72;40.41;99985.94;5052890;28;20045;-48
2023/03/07 08:11:33;;;;;;;6.22;3.33;;;;;;;19.72;40.76;99985.09;5052896;28;20376;-45
2023/03/07 08:14:02;;;;;;;8.73;3.53;;;;;;;19.72;40.78;99980.56;5053075;28;20503;-47
2023/03/07 08:16:29;;;;;;;7.68;3.53;;;;;;;19.73;40.60;99986.81;5053323;28;20049;-48
2023/03/07 08:18:56;;;;;;;5.88;3.00;;;;;;;19.72;40.86;99980.56;5053416;28;20115;-46
2023/03/07 08:21:24;;;;;;;4.63;2.75;;;;;;;19.73;40.91;99984.97;5052127;28;20049;-47
2023/03/07 08:23:53;;;;;;;6.78;2.80;;;;;;;19.73;41.05;99990.34;5053036;28;20064;-45
2023/03/07 08:26:21;;;;;;;5.82;2.90;;;;;;;19.73;40.84;99993.03;5053268;28;20048;-45
2023/03/07 08:28:48;;;;;;;6.75;3.08;;;;;;;19.74;41.05;99993.88;5053116;28;20391;-45
2023/03/07 08:31:19;;;;;;;6.18;3.38;;;;;;;19.74;41.04;100000.09;5052984;28;20491;-47
2023/03/07 08:33:46;;;;;;;8.65;3.20;;;;;;;19.74;41.31;99989.34;5053474;28;20041;-46
2023/03/07 08:36:14;;;;;;;6.50;3.50;;;;;;;19.74;41.21;99992.03;5053618;28;20052;-46
2023/03/07 08:38:42;;;;;;;5.63;3.40;;;;;;;19.76;41.39;99989.19;5053231;28;20393;-47
2023/03/07 08:41:10;;;;;;;7.78;3.28;;;;;;;19.76;41.30;99987.31;5053240;28;20044;-47
2023/03/07 08:43:38;;;;;;;10.07;3.70;;;;;;;19.77;41.28;99988.19;5053001;28;20063;-48
2023/03/07 08:46:05;;;;;;;7.93;3.60;;;;;;;19.78;41.50;99994.41;5053277;28;20045;-48
2023/03/07 08:48:33;;;;;;;6.63;3.03;;;;;;;19.79;42.02;99985.34;5053142;28;20045;-48
2023/03/07 08:51:09;;;;;;;9.23;5.15;;;;;;;19.78;39.77;99992.56;5052828;28;20060;-47
2023/03/07 08:53:37;;;;;;;10.18;6.75;;;;;;;19.75;38.15;99990.19;5052837;28;20037;-46
2023/03/07 08:56:09;;;;;;;13.00;6.57;;;;;;;19.70;37.56;99996.03;5052611;28;20060;-46
2023/03/07 08:58:37;;;;;;;11.20;6.50;;;;;;;19.67;37.58;99984.75;5052976;28;20060;-47
2023/03/07 09:01:06;;;;;;;10.52;6.90;;;;;;;19.62;37.15;99982.53;5052802;28;20045;-48
2023/03/07 09:03:35;;;;;;;11.32;7.55;;;;;;;19.58;36.82;99991.84;5053135;28;20056;-47
2023/03/07 09:06:03;;;;;;;9.43;6.93;;;;;;;19.55;37.09;99978.72;5052904;28;20044;-47
2023/03/07 09:08:31;;;;;;;12.63;6.32;;;;;;;19.55;37.89;99988.63;5053140;28;20051;-47
2023/03/07 09:11:04;;;;;;;12.60;6.13;;;;;;;19.54;37.82;99982.41;5052831;28;20103;-50
2023/03/07 09:13:31;;;;;;;11.85;7.30;;;;;;;19.52;37.46;99987.06;5052860;28;20052;-51
2023/03/07 09:16:07;;;;;;;11.00;7.18;;;;;;;19.49;36.95;99977.50;5052464;28;20045;-46
2023/03/07 09:18:35;;;;;;;11.82;7.40;;;;;;;19.42;35.66;99973.75;5052791;28;20041;-46
2023/03/07 09:21:03;;;;;;;9.43;6.38;;;;;;;19.27;35.66;99965.38;5051603;28;20060;-47
2023/03/07 09:23:31;;;;;;;12.07;7.70;;;;;;;19.13;35.84;99965.91;5052585;28;20052;-47
2023/03/07 09:26:00;;;;;;;13.20;7.85;;;;;;;19.04;36.31;99961.47;5053311;28;20052;-45
2023/03/07 09:28:27;;;;;;;12.07;7.25;;;;;;;19.01;36.28;99961.75;5056336;28;20051;-47
2023/03/07 09:30:54;;;;;;;10.45;6.15;;;;;;;19.02;37.26;99956.22;5056134;28;20049;-48
2023/03/07 09:33:22;;;;;;;8.90;5.68;;;;;;;19.09;37.80;99951.13;5056231;28;20045;-47
2023/03/07 09:35:49;;;;;;;10.93;6.25;;;;;;;19.17;38.28;99955.72;5056390;28;20045;-47
2023/03/07 09:38:17;;;;;;;6.57;4.63;;;;;;;19.23;38.44;99953.25;5056295;28;20045;-47
2023/03/07 09:40:47;;;;;;;8.32;4.43;;;;;;;19.28;38.73;99952.78;5055562;28;20052;-46
2023/03/07 09:43:24;;;;;;;7.90;4.40;;;;;;;19.35;38.78;99955.72;5055474;28;20045;-46
2023/03/07 09:46:51;;;;;;;7.28;4.32;;;;;;;19.40;38.93;99950.72;5055412;28;20403;-47
2023/03/07 09:49:24;;;;;;;6.93;4.13;;;;;;;19.43;38.99;99948.59;5055479;28;20044;-47
2023/03/07 09:51:57;;;;;;;7.05;3.70;;;;;;;19.46;39.01;99948.28;5055424;28;20079;-47
2023/03/07 09:54:36;;;;;;;;;;;;;;;19.50;39.02;99951.50;5055798;28;20049;-46
2023/03/07 09:57:05;;;;;;;9.38;4.22;;;;;;;19.52;39.15;99952.19;5055386;28;20310;-47
2023/03/07 09:59:46;;;;;;;7.97;3.90;;;;;;;19.54;39.12;99958.25;5055164;28;20402;-47
2023/03/07 10:02:31;;;;;;;6.88;3.92;;;;;;;19.54;39.19;99952.88;5055446;28;20498;-46
2023/03/07 10:05:18;;;;;;;9.05;3.67;;;;;;;19.56;39.26;99956.25;5055342;28;20049;-46
2023/03/07 10:07:45;;;;;;;6.15;3.60;;;;;;;19.59;39.13;99960.47;5055062;28;20045;-46
2023/03/07 10:10:29;;;;;;;9.35;3.83;;;;;;;19.59;39.28;99950.56;5055066;28;20052;-47
2023/03/07 10:13:17;;;;;;;6.70;3.83;;;;;;;19.60;39.40;99938.81;5054952;28;20045;-48
2023/03/07 10:15:49;;;;;;;6.68;3.80;;;;;;;19.61;39.39;99935.19;5054903;28;20056;-48
2023/03/07 10:18:45;;;;;;;6.95;3.80;;;;;;;19.63;39.21;99937.72;5054903;28;20047;-46
2023/03/07 10:21:31;;;;;;;6.65;3.55;;;;;;;19.63;39.18;99938.56;5054792;28;20049;-47
2023/03/07 10:24:19;;;;;;;6.32;3.60;;;;;;;19.65;39.08;99936.56;5054646;28;20053;-47
2023/03/07 10:27:05;;;;;;;5.45;3.08;;;;;;;19.65;39.14;99930.38;5054745;28;20056;-47
2023/03/07 10:30:00;;;;;;;6.93;2.97;;;;;;;19.64;39.32;99923.28;5054693;28;20048;-48
2023/03/07 10:32:40;;;;;;;7.72;3.78;;;;;;;19.66;39.25;99924.00;5054217;28;20057;-47
2023/03/07 10:35:10;;;;;;;6.53;3.35;;;;;;;19.66;39.37;99919.47;5054582;28;20052;-51
2023/03/07 10:37:49;;;;;;;7.03;3.58;;;;;;;19.66;39.40;99914.09;5053421;28;20055;-48
2023/03/07 10:40:22;;;;;;;6.88;3.55;;;;;;;19.67;39.50;99918.44;5054471;28;20048;-46
2023/03/07 10:42:49;;;;;;;;;;;;;;;19.68;39.30;99917.44;5054680;28;20407;-47
2023/03/07 10:45:17;;;;;;;5.28;3.22;;;;;;;19.68;39.23;99916.59;5054680;28;19921;-47
2023/03/07 10:47:45;;;;;;;4.43;2.90;;;;;;;19.68;39.58;99927.34;5054472;28;20049;-46
2023/03/07 10:50:20;;;;;;;8.07;3.13;;;;;;;19.68;39.57;99922.81;5054281;28;20048;-47
2023/03/07 10:52:54;;;;;;;4.65;2.95;;;;;;;19.68;39.76;99912.06;5054187;28;20488;-46
2023/03/07 10:55:43;;;;;;;5.03;2.88;;;;;;;19.69;39.64;99916.47;5054371;28;20053;-45
2023/03/07 10:58:25;;;;;;;6.55;3.75;;;;;;;19.70;39.72;99918.16;5052768;28;20059;-46
2023/03/07 11:01:06;;;;;;;5.03;3.00;;;;;;;19.72;39.66;99909.91;5054325;28;20052;-46
2023/03/07 11:03:37;;;;;;;5.03;3.15;;;;;;;19.71;39.67;99900.19;5054027;28;20408;-48
2023/03/07 11:06:39;;;;;;;5.60;3.08;;;;;;;19.72;39.85;99897.34;5054005;28;20056;-48
2023/03/07 11:09:21;;;;;;;6.85;2.75;;;;;;;19.73;39.87;99890.16;5054119;28;20049;-46
2023/03/07 11:11:55;;;;;;;5.53;3.42;;;;;;;19.73;39.72;99896.34;5053870;28;20045;-46
2023/03/07 11:14:24;;;;;;;5.57;3.00;;;;;;;19.74;39.90;99891.81;5053850;28;20045;-46
2023/03/07 11:16:58;;;;;;;6.10;2.85;;;;;;;19.73;39.81;99885.63;5053783;28;20052;-47
2023/03/07 11:19:42;;;;;;;4.22;2.40;;;;;;;19.74;39.80;99884.59;5053742;28;20051;-47
2023/03/07 11:22:16;;;;;;;5.78;2.70;;;;;;;19.74;39.75;99873.88;5053822;28;20049;-45
2023/03/07 11:25:16;;;;;;;5.70;2.78;;;;;;;19.74;39.92;99863.13;5053573;28;20056;-46
2023/03/07 11:27:44;;;;;;;4.63;2.75;;;;;;;19.75;39.75;99855.91;5053546;28;20057;-45
2023/03/07 11:30:19;;;;;;;5.15;2.80;;;;;;;19.76;40.08;99855.72;5053502;28;20055;-46
2023/03/07 11:33:23;;;;;;;6.10;2.97;;;;;;;19.75;39.90;99854.06;5053547;28;20051;-50
2023/03/07 11:36:00;;;;;;;7.85;2.78;;;;;;;19.76;39.71;99847.69;5053432;28;20057;-47
2023/03/07 11:38:36;;;;;;;5.40;3.10;;;;;;;19.78;39.88;99849.38;5053442;28;20041;-49
2023/03/07 11:41:35;;;;;;;6.00;2.90;;;;;;;19.76;39.78;99842.31;5053245;28;20057;-48
2023/03/07 11:44:40;;;;;;;7.07;2.58;;;;;;;19.76;39.83;99841.47;5053181;28;20495;-46
2023/03/07 11:47:25;;;;;;;4.00;2.55;;;;;;;19.76;39.62;99836.94;5053686;28;20052;-47
2023/03/07 11:50:13;;;;;;;3.60;2.35;;;;;;;19.76;39.92;99818.13;5053083;28;20128;-49